Time;durP1;ratioP1;P1;durP2;ratioP2;P2;SDS_P1;SDS_P2;PMS_P1;PMS_P2;Temp;Humidity;BMP_temperature;BMP_pressure;BME280_temperature;BME280_humidity;BME280_pressure;Samples;Min_cycle;Max_cycle;Signal;HPM_P1;HPM_P2
2022/02/27 00:01:42;;;;;;;6.90;4.00;;;6.50;1.00;;;;;;5034496;28;20021;-85
2022/02/27 00:04:08;;;;;;;8.85;4.28;;;6.70;99.90;;;;;;5033940;28;20052;-85
2022/02/27 00:06:33;;;;;;;5.95;4.13;;;6.50;99.90;;;;;;5034386;28;20041;-85
2022/02/27 00:08:59;;;;;;;6.25;4.30;;;6.40;99.90;;;;;;5034139;28;20106;-85
2022/02/27 00:11:25;;;;;;;7.70;4.38;;;6.40;99.90;;;;;;5034173;28;20029;-85
2022/02/27 00:13:50;;;;;;;7.75;4.22;;;6.80;99.90;;;;;;5034156;28;20025;-85
2022/02/27 00:16:16;;;;;;;5.55;3.90;;;6.60;99.90;;;;;;5033771;28;20034;-85
2022/02/27 00:18:42;;;;;;;6.93;4.13;;;6.40;99.90;;;;;;5016385;28;20494;-84
2022/02/27 00:21:08;;;;;;;7.05;4.18;;;6.60;99.90;;;;;;5034305;28;20032;-85
2022/02/27 00:23:34;;;;;;;8.25;4.72;;;6.90;99.90;;;;;;5033600;28;20036;-85
2022/02/27 00:26:00;;;;;;;7.10;4.20;;;6.30;99.90;;;;;;5033680;28;20108;-85
2022/02/27 00:28:25;;;;;;;5.68;4.32;;;6.30;99.90;;;;;;5033469;28;20022;-85
2022/02/27 00:30:51;;;;;;;5.75;4.32;;;6.10;99.90;;;;;;5033822;28;20041;-85
2022/02/27 00:33:17;;;;;;;6.53;4.03;;;6.20;99.90;;;;;;5033934;28;20075;-85
2022/02/27 00:35:42;;;;;;;6.28;4.35;;;6.80;99.90;;;;;;5034125;28;20500;-84
2022/02/27 00:38:08;;;;;;;7.20;4.10;;;6.70;99.90;;;;;;5032724;28;20136;-85
2022/02/27 00:40:35;;;;;;;6.93;4.40;;;6.20;99.90;;;;;;5033209;28;20053;-85
2022/02/27 00:43:00;;;;;;;7.57;4.43;;;6.10;99.90;;;;;;5033308;28;20048;-85
2022/02/27 00:45:26;;;;;;;6.47;4.40;;;6.40;1.00;;;;;;5033414;28;20497;-85
2022/02/27 00:47:52;;;;;;;5.65;4.10;;;6.00;99.90;;;;;;5034104;28;20474;-85
2022/02/27 00:50:18;;;;;;;8.48;4.57;;;6.40;99.90;;;;;;5033037;28;20029;-84
2022/02/27 00:52:44;;;;;;;6.38;4.43;;;6.60;99.90;;;;;;5033046;28;20064;-85
2022/02/27 00:55:10;;;;;;;6.70;4.20;;;6.50;99.90;;;;;;5033622;28;20022;-85
2022/02/27 00:57:36;;;;;;;8.68;4.55;;;6.60;99.90;;;;;;5032845;28;20124;-85
2022/02/27 01:00:05;;;;;;;6.97;4.78;;;6.10;99.90;;;;;;5033484;28;20159;-85
2022/02/27 01:02:30;;;;;;;8.07;4.68;;;6.10;99.90;;;;;;5033306;28;20087;-85
2022/02/27 01:04:56;;;;;;;5.95;4.55;;;6.00;99.90;;;;;;5032701;28;20461;-85
2022/02/27 01:07:21;;;;;;;7.35;4.68;;;6.50;99.90;;;;;;5032669;28;20571;-84
2022/02/27 01:09:47;;;;;;;6.65;4.75;;;6.10;99.90;;;;;;5033144;28;20087;-84
2022/02/27 01:12:13;;;;;;;7.10;4.85;;;6.00;99.90;;;;;;5033343;28;20139;-84
2022/02/27 01:14:38;;;;;;;6.07;4.72;;;6.00;99.90;;;;;;5033050;28;20043;-84
2022/02/27 01:17:06;;;;;;;8.70;4.68;;;6.30;99.90;;;;;;5016061;28;20408;-84
2022/02/27 01:19:35;;;;;;;5.00;4.10;;;5.80;99.90;;;;;;5032413;28;20033;-85
2022/02/27 01:22:00;;;;;;;7.78;4.65;;;5.90;1.00;;;;;;5032739;28;20025;-85
2022/02/27 01:24:26;;;;;;;5.90;4.20;;;6.50;99.90;;;;;;5032839;28;20037;-85
2022/02/27 01:26:51;;;;;;;9.32;4.78;;;6.60;99.90;;;;;;5032829;28;20025;-84
2022/02/27 01:29:17;;;;;;;6.63;3.88;;;6.70;99.90;;;;;;5032267;28;20134;-85
2022/02/27 01:31:43;;;;;;;6.05;4.28;;;6.20;99.90;;;;;;5033160;28;20167;-85
2022/02/27 01:34:09;;;;;;;5.70;4.05;;;5.90;99.90;;;;;;5032245;28;20489;-85
2022/02/27 01:36:34;;;;;;;6.00;4.40;;;6.10;99.90;;;;;;5032183;28;20072;-84
2022/02/27 01:39:00;;;;;;;5.00;4.05;;;5.90;99.90;;;;;;5033275;28;20103;-84
2022/02/27 01:41:26;;;;;;;8.35;4.55;;;6.20;99.90;;;;;;5031993;28;20030;-84
2022/02/27 01:43:52;;;;;;;7.05;4.60;;;5.80;99.90;;;;;;5032228;28;20025;-85
2022/02/27 01:46:18;;;;;;;6.55;4.78;;;5.80;99.90;;;;;;5031995;28;20024;-85
2022/02/27 01:48:44;;;;;;;6.10;4.65;;;5.40;99.90;;;;;;5031759;28;20478;-85
2022/02/27 01:51:11;;;;;;;7.65;5.40;;;5.90;99.90;;;;;;5032513;28;20116;-84
2022/02/27 01:53:37;;;;;;;6.70;4.95;;;5.50;1.00;;;;;;5032007;28;20065;-84
2022/02/27 01:56:04;;;;;;;7.47;5.28;;;6.10;1.00;;;;;;5032071;28;20053;-85
2022/02/27 01:58:31;;;;;;;8.93;5.20;;;5.40;1.00;;;;;;5031958;28;20041;-85
2022/02/27 02:00:59;;;;;;;7.30;4.88;;;5.30;1.00;;;;;;5031985;28;20030;-85
2022/02/27 02:03:26;;;;;;;8.52;5.05;;;5.70;1.00;;;;;;5032512;28;20033;-85
2022/02/27 02:05:52;;;;;;;8.13;4.90;;;5.70;1.00;;;;;;5031925;28;20026;-84
2022/02/27 02:08:18;;;;;;;7.07;4.88;;;5.80;99.90;;;;;;5031764;28;20044;-84
2022/02/27 02:10:44;;;;;;;8.75;5.43;;;5.80;1.00;;;;;;5032138;28;20080;-84
2022/02/27 02:13:10;;;;;;;6.47;5.40;;;5.30;99.90;;;;;;5032096;28;20426;-84
2022/02/27 02:15:36;;;;;;;7.22;5.40;;;5.30;99.90;;;;;;5031457;28;20034;-85
2022/02/27 02:18:02;;;;;;;7.20;4.80;;;5.70;99.90;;;;;;5031758;28;20030;-84
2022/02/27 02:20:28;;;;;;;8.45;5.20;;;5.30;1.00;;;;;;5031134;28;20104;-85
2022/02/27 02:22:54;;;;;;;9.23;5.10;;;5.30;99.90;;;;;;5031734;28;20458;-84
2022/02/27 02:25:19;;;;;;;7.53;5.57;;;5.20;99.90;;;;;;5031068;28;20501;-84
2022/02/27 02:27:45;;;;;;;10.23;5.30;;;5.20;99.90;;;;;;5031808;28;20033;-85
2022/02/27 02:30:11;;;;;;;8.80;5.75;;;5.90;99.90;;;;;;5032303;28;20113;-84
2022/02/27 02:32:55;;;;;;;9.73;5.97;;;5.40;99.90;;;;;;5030478;28;20095;-84
2022/02/27 02:35:22;;;;;;;8.27;5.55;;;5.30;1.00;;;;;;5031143;28;20030;-84
2022/02/27 02:37:48;;;;;;;7.32;5.20;;;5.60;1.00;;;;;;5031259;28;20053;-84
2022/02/27 02:40:14;;;;;;;8.02;5.32;;;5.20;99.90;;;;;;5031520;28;20041;-84
2022/02/27 02:42:44;;;;;;;9.27;6.20;;;5.10;99.90;;;;;;5031145;28;20031;-84
2022/02/27 02:45:11;;;;;;;7.10;5.55;;;5.40;1.00;;;;;;5031813;28;20026;-84
2022/02/27 02:47:47;;;;;;;9.93;5.72;;;5.20;1.00;;;;;;5030627;28;20040;-84
2022/02/27 02:50:14;;;;;;;10.40;6.28;;;5.20;1.00;;;;;;5030923;28;20033;-84
2022/02/27 02:52:40;;;;;;;8.77;6.28;;;5.40;1.00;;;;;;5031556;28;20025;-84
2022/02/27 02:55:12;;;;;;;8.82;5.95;;;5.40;99.90;;;;;;5031202;28;20036;-84
2022/02/27 02:57:38;;;;;;;9.05;5.78;;;5.40;1.00;;;;;;5030971;28;20025;-84
2022/02/27 03:00:08;;;;;;;12.63;5.90;;;5.70;99.90;;;;;;5030844;28;20030;-84
2022/02/27 03:02:34;;;;;;;11.73;7.28;;;5.30;1.00;;;;;;5030447;28;20036;-84
2022/02/27 03:04:59;;;;;;;9.85;6.18;;;5.20;1.00;;;;;;5030881;28;20061;-84
2022/02/27 03:07:25;;;;;;;8.38;5.50;;;5.10;99.90;;;;;;5030896;28;20458;-84
2022/02/27 03:09:51;;;;;;;7.40;5.47;;;5.20;99.90;;;;;;5031530;28;20057;-84
2022/02/27 03:12:17;;;;;;;8.13;5.05;;;5.60;99.90;;;;;;5031736;28;20022;-84
2022/02/27 03:14:42;;;;;;;7.93;5.38;;;5.50;1.00;;;;;;5030465;28;20112;-85
2022/02/27 03:17:08;;;;;;;8.52;4.82;;;5.30;99.90;;;;;;5030819;28;20030;-84
2022/02/27 03:19:33;;;;;;;10.10;4.60;;;5.40;1.00;;;;;;5030949;28;20033;-85
2022/02/27 03:21:59;;;;;;;6.20;4.32;;;4.90;99.90;;;;;;5030798;28;20032;-85
2022/02/27 03:24:25;;;;;;;5.55;4.35;;;5.50;99.90;;;;;;5031101;28;20017;-84
2022/02/27 03:26:50;;;;;;;5.22;4.47;;;5.20;99.90;;;;;;5031052;28;20029;-84
2022/02/27 03:29:16;;;;;;;8.63;4.32;;;4.80;1.00;;;;;;5030421;28;20029;-84
2022/02/27 03:31:42;;;;;;;6.13;4.07;;;4.80;1.00;;;;;;5030658;28;20030;-85
2022/02/27 03:34:07;;;;;;;7.18;4.38;;;5.00;99.90;;;;;;5030926;28;20104;-84
2022/02/27 03:36:33;;;;;;;6.80;4.30;;;5.40;99.90;;;;;;5030715;28;20029;-84
2022/02/27 03:38:59;;;;;;;6.97;4.20;;;4.70;1.00;;;;;;5030856;28;20410;-84
2022/02/27 03:41:24;;;;;;;6.97;4.10;;;4.80;99.90;;;;;;5030821;28;20025;-84
2022/02/27 03:43:50;;;;;;;6.40;3.92;;;4.90;99.90;;;;;;5030202;28;20568;-85
2022/02/27 03:46:15;;;;;;;5.35;3.85;;;5.00;99.90;;;;;;5030224;28;20033;-84
2022/02/27 03:48:41;;;;;;;5.63;4.32;;;5.30;99.90;;;;;;5030936;28;20041;-84
2022/02/27 03:51:07;;;;;;;7.38;4.65;;;5.00;1.00;;;;;;5030927;28;20466;-84
2022/02/27 03:53:33;;;;;;;9.00;4.85;;;5.50;99.90;;;;;;5030743;28;20049;-84
2022/02/27 03:55:59;;;;;;;8.15;4.50;;;5.10;99.90;;;;;;5030721;28;20115;-84
2022/02/27 03:58:25;;;;;;;7.38;4.75;;;4.90;99.90;;;;;;5030257;28;20576;-84
2022/02/27 04:00:51;;;;;;;7.65;4.38;;;5.00;99.90;;;;;;5030310;28;20116;-84
2022/02/27 04:03:16;;;;;;;7.70;4.10;;;5.00;99.90;;;;;;5030867;28;20112;-85
2022/02/27 04:05:42;;;;;;;8.32;4.72;;;5.40;1.00;;;;;;5030256;28;20029;-84
2022/02/27 04:08:08;;;;;;;7.88;4.43;;;4.90;1.00;;;;;;5030145;28;20033;-84
2022/02/27 04:10:34;;;;;;;8.38;4.40;;;5.20;1.00;;;;;;5031917;28;20517;-83
2022/02/27 04:13:00;;;;;;;5.20;3.80;;;5.10;1.00;;;;;;5033322;28;20029;-84
2022/02/27 04:15:26;;;;;;;7.45;3.95;;;4.70;1.00;;;;;;5033412;28;20025;-85
2022/02/27 04:17:52;;;;;;;8.07;4.00;;;4.70;1.00;;;;;;5034590;28;20061;-84
2022/02/27 04:20:18;;;;;;;6.40;4.22;;;4.70;1.00;;;;;;5033605;28;20117;-84
2022/02/27 04:22:45;;;;;;;7.82;4.18;;;4.80;1.00;;;;;;5034184;28;20051;-84
2022/02/27 04:25:10;;;;;;;9.38;4.28;;;5.30;1.00;;;;;;5033945;28;20112;-84
2022/02/27 04:27:36;;;;;;;6.10;3.80;;;4.70;1.00;;;;;;5034110;28;20472;-84
2022/02/27 04:30:03;;;;;;;5.22;3.70;;;4.90;1.00;;;;;;5033949;28;20490;-84
2022/02/27 04:32:29;;;;;;;5.28;3.53;;;4.80;1.00;;;;;;5033486;28;20064;-85
2022/02/27 04:34:55;;;;;;;4.55;3.40;;;5.20;1.00;;;;;;5033242;28;20454;-84
2022/02/27 04:37:21;;;;;;;6.13;3.80;;;5.30;1.00;;;;;;5033442;28;20060;-84
2022/02/27 04:39:46;;;;;;;5.40;3.50;;;4.90;1.00;;;;;;5033883;28;20506;-84
2022/02/27 04:42:12;;;;;;;4.25;3.38;;;4.70;1.00;;;;;;5033788;28;20033;-85
2022/02/27 04:44:38;;;;;;;7.00;3.90;;;4.70;1.00;;;;;;5032876;28;20042;-84
2022/02/27 04:47:04;;;;;;;4.97;3.33;;;4.60;1.00;;;;;;5033717;28;20076;-84
2022/02/27 04:49:29;;;;;;;6.00;3.50;;;4.60;99.90;;;;;;5033173;28;20029;-84
2022/02/27 04:51:55;;;;;;;6.05;3.80;;;4.70;99.90;;;;;;5033194;28;20030;-84
2022/02/27 04:54:21;;;;;;;6.85;3.38;;;4.70;99.90;;;;;;5034228;28;20037;-84
2022/02/27 04:56:47;;;;;;;6.60;3.70;;;4.60;1.00;;;;;;5033053;28;20547;-84
2022/02/27 04:59:12;;;;;;;5.60;3.80;;;5.00;99.90;;;;;;5032896;28;20128;-84
2022/02/27 05:01:39;;;;;;;7.38;3.90;;;4.60;1.00;;;;;;5033361;28;20155;-84
2022/02/27 05:04:05;;;;;;;5.78;3.70;;;4.50;1.00;;;;;;5032766;28;20030;-85
2022/02/27 05:06:33;;;;;;;6.18;3.70;;;4.50;99.90;;;;;;5033146;28;20025;-84
2022/02/27 05:08:58;;;;;;;5.72;3.63;;;4.40;1.00;;;;;;5034237;28;20025;-85
2022/02/27 05:11:24;;;;;;;6.10;3.63;;;4.40;1.00;;;;;;5032762;28;20407;-84
2022/02/27 05:13:49;;;;;;;4.97;3.90;;;5.00;99.90;;;;;;5032984;28;20025;-84
2022/02/27 05:16:15;;;;;;;5.68;3.40;;;4.70;1.00;;;;;;5032344;28;20406;-84
2022/02/27 05:18:42;;;;;;;6.20;3.63;;;4.80;1.00;;;;;;5033084;28;20124;-84
2022/02/27 05:21:08;;;;;;;9.45;4.13;;;4.40;99.90;;;;;;5033235;28;20025;-84
2022/02/27 05:23:34;;;;;;;6.38;3.60;;;4.70;99.90;;;;;;5032300;28;20037;-84
2022/02/27 05:25:59;;;;;;;6.50;3.40;;;5.10;99.90;;;;;;5032264;28;20029;-84
2022/02/27 05:28:26;;;;;;;5.03;3.00;;;4.90;99.90;;;;;;5032323;28;20040;-84
2022/02/27 05:30:53;;;;;;;5.55;3.60;;;4.60;1.00;;;;;;5032607;28;20124;-84
2022/02/27 05:33:18;;;;;;;6.07;3.25;;;4.30;1.00;;;;;;5033834;28;20052;-84
2022/02/27 05:35:44;;;;;;;6.28;3.47;;;4.50;1.00;;;;;;5032524;28;20029;-84
2022/02/27 05:38:10;;;;;;;5.82;3.40;;;4.30;1.00;;;;;;5032011;28;20041;-84
2022/02/27 05:40:35;;;;;;;7.07;3.80;;;4.00;1.00;;;;;;5032755;28;20022;-84
2022/02/27 05:43:01;;;;;;;8.90;3.88;;;4.80;99.90;;;;;;5032570;28;20049;-85
2022/02/27 05:45:27;;;;;;;6.40;3.75;;;4.20;1.00;;;;;;5032792;28;20041;-84
2022/02/27 05:47:52;;;;;;;7.97;3.30;;;4.70;1.00;;;;;;5032843;28;20025;-84
2022/02/27 05:50:18;;;;;;;6.75;3.67;;;4.30;99.90;;;;;;5031672;28;20115;-85
2022/02/27 05:52:43;;;;;;;7.60;3.15;;;4.30;99.90;;;;;;5032320;28;20464;-84
2022/02/27 05:55:10;;;;;;;7.70;3.63;;;4.80;1.00;;;;;;5032066;28;20485;-85
2022/02/27 05:57:35;;;;;;;6.53;4.22;;;4.20;99.90;;;;;;5031994;28;20021;-84
2022/02/27 06:00:02;;;;;;;7.38;3.50;;;4.10;99.90;;;;;;5014723;28;20029;-84
2022/02/27 06:02:28;;;;;;;9.52;3.35;;;4.20;1.00;;;;;;5031822;28;20128;-84
2022/02/27 06:04:53;;;;;;;8.70;3.65;;;4.20;1.00;;;;;;5032166;28;20520;-84
2022/02/27 06:07:19;;;;;;;6.10;3.33;;;4.30;99.90;;;;;;5032268;28;20072;-84
2022/02/27 06:09:45;;;;;;;7.13;3.42;;;4.30;1.00;;;;;;5031896;28;20494;-84
2022/02/27 06:12:10;;;;;;;5.35;3.30;;;4.70;1.00;;;;;;5031768;28;20033;-84
2022/02/27 06:14:36;;;;;;;7.57;3.95;;;4.10;1.00;;;;;;5031502;28;20104;-85
2022/02/27 06:17:02;;;;;;;7.80;3.55;;;4.70;1.00;;;;;;5031434;28;20544;-84
2022/02/27 06:19:27;;;;;;;7.97;3.55;;;4.00;99.90;;;;;;5031774;28;20116;-85
2022/02/27 06:21:53;;;;;;;5.38;3.45;;;4.40;99.90;;;;;;5031553;28;20041;-84
2022/02/27 06:24:19;;;;;;;6.40;3.70;;;4.00;1.00;;;;;;5031991;28;20152;-84
2022/02/27 06:26:44;;;;;;;5.63;3.45;;;4.10;1.00;;;;;;5031643;28;20116;-84
2022/02/27 06:29:10;;;;;;;6.47;3.38;;;4.50;1.00;;;;;;5031420;28;20039;-84
2022/02/27 06:31:36;;;;;;;8.85;3.83;;;4.10;1.00;;;;;;5014897;28;20092;-84
2022/02/27 06:34:01;;;;;;;5.55;3.10;;;4.10;1.00;;;;;;5031262;28;20025;-84
2022/02/27 06:36:27;;;;;;;8.85;3.83;;;4.70;1.00;;;;;;5032503;28;20561;-85
2022/02/27 06:38:53;;;;;;;7.88;3.45;;;4.10;99.90;;;;;;5030957;28;20099;-84
2022/02/27 06:41:18;;;;;;;5.43;3.00;;;4.20;1.00;;;;;;5014208;28;20078;-84
2022/02/27 06:43:44;;;;;;;5.40;3.13;;;4.10;1.00;;;;;;5030563;28;20110;-84
2022/02/27 06:46:10;;;;;;;5.47;3.35;;;4.90;1.00;;;;;;5030893;28;20026;-84
2022/02/27 06:48:35;;;;;;;7.25;3.72;;;4.70;1.00;;;;;;5031676;28;20030;-84
2022/02/27 06:51:01;;;;;;;6.78;3.20;;;4.20;1.00;;;;;;5031992;28;20026;-84
2022/02/27 06:53:27;;;;;;;6.68;3.63;;;4.70;1.00;;;;;;5014334;28;20033;-84
2022/02/27 06:55:53;;;;;;;5.95;3.42;;;4.90;1.00;;;;;;5031692;28;20030;-84
2022/02/27 06:58:19;;;;;;;7.10;3.80;;;4.30;1.00;;;;;;5030957;28;20527;-84
2022/02/27 07:00:45;;;;;;;7.13;3.65;;;4.40;1.00;;;;;;5031243;28;20370;-84
2022/02/27 07:03:11;;;;;;;5.80;3.30;;;4.20;1.00;;;;;;5031514;28;20277;-84
2022/02/27 07:05:36;;;;;;;6.38;3.90;;;4.80;1.00;;;;;;5031310;28;20037;-84
2022/02/27 07:08:02;;;;;;;9.50;4.10;;;4.90;1.00;;;;;;5030730;28;20584;-84
2022/02/27 07:10:28;;;;;;;8.27;3.92;;;4.40;99.90;;;;;;5031104;28;20024;-84
2022/02/27 07:12:53;;;;;;;7.10;4.35;;;4.40;1.00;;;;;;5031296;28;20060;-84
2022/02/27 07:15:19;;;;;;;7.40;3.70;;;4.40;99.90;;;;;;5031031;28;20022;-83
2022/02/27 07:17:45;;;;;;;9.60;5.55;;;5.10;1.00;;;;;;5030736;28;20033;-84
2022/02/27 07:20:11;;;;;;;10.10;6.20;;;4.60;1.00;;;;;;5030980;28;20095;-84
2022/02/27 07:22:37;;;;;;;9.90;5.53;;;4.70;1.00;;;;;;5030248;28;20026;-84
2022/02/27 07:25:07;;;;;;;6.18;4.30;;;4.90;1.00;;;;;;5031461;28;20026;-84
2022/02/27 07:27:34;;;;;;;6.78;3.63;;;4.70;1.00;;;;;;5030966;28;20040;-84
2022/02/27 07:30:00;;;;;;;7.25;3.97;;;4.50;1.00;;;;;;5031151;28;20026;-84
2022/02/27 07:32:26;;;;;;;9.57;3.90;;;4.60;1.00;;;;;;5030578;28;20460;-84
2022/02/27 07:34:52;;;;;;;5.88;3.45;;;5.10;1.00;;;;;;5030785;28;20448;-84
2022/02/27 07:37:18;;;;;;;8.63;3.58;;;5.20;1.00;;;;;;5030092;28;20129;-84
2022/02/27 07:39:43;;;;;;;5.38;3.42;;;5.20;1.00;;;;;;5030128;28;20048;-84
2022/02/27 07:42:09;;;;;;;9.30;3.70;;;5.40;1.00;;;;;;5030630;28;20493;-84
2022/02/27 07:44:35;;;;;;;5.45;3.55;;;5.20;1.00;;;;;;5030513;28;20030;-84
2022/02/27 07:47:01;;;;;;;6.53;3.50;;;4.80;99.90;;;;;;5034349;28;20082;-84
2022/02/27 07:49:26;;;;;;;5.97;3.22;;;4.90;1.00;;;;;;5034406;28;20052;-84
2022/02/27 07:51:53;;;;;;;5.80;3.47;;;5.50;1.00;;;;;;5034032;28;20056;-84
2022/02/27 07:54:19;;;;;;;7.57;3.63;;;4.90;1.00;;;;;;5030855;28;20436;-83
2022/02/27 07:56:45;;;;;;;7.18;2.80;;;5.30;1.00;;;;;;5034577;28;20033;-84
2022/02/27 07:59:11;;;;;;;7.20;3.20;;;5.70;1.00;;;;;;5034312;28;20051;-84
2022/02/27 08:01:37;;;;;;;8.57;3.38;;;5.10;99.90;;;;;;5034151;28;20036;-84
2022/02/27 08:04:03;;;;;;;7.05;3.38;;;5.70;1.00;;;;;;5034448;28;20025;-84
2022/02/27 08:06:29;;;;;;;7.10;3.13;;;5.40;1.00;;;;;;5034274;28;20088;-84
2022/02/27 08:08:57;;;;;;;5.20;2.72;;;5.90;1.00;;;;;;5033409;28;20030;-84
2022/02/27 08:11:22;;;;;;;8.02;3.20;;;5.90;1.00;;;;;;5034325;28;20448;-84
2022/02/27 08:13:48;;;;;;;7.15;3.25;;;5.50;1.00;;;;;;5033940;28;20030;-84
2022/02/27 08:16:14;;;;;;;5.15;3.00;;;5.90;1.00;;;;;;5037527;28;20084;-92
2022/02/27 08:18:39;;;;;;;5.95;2.67;;;5.90;99.90;;;;;;5034972;28;20482;-91
2022/02/27 08:21:05;;;;;;;5.25;3.30;;;6.60;99.90;;;;;;5019706;28;20029;-91
2022/02/27 08:23:31;;;;;;;8.93;3.25;;;6.80;99.90;;;;;;5034916;28;20037;-91
2022/02/27 08:25:59;;;;;;;6.15;3.38;;;7.00;99.90;;;;;;5024959;28;20041;-91
2022/02/27 08:28:25;;;;;;;5.57;2.90;;;7.00;99.90;;;;;;5035316;28;20036;-91
2022/02/27 08:30:51;;;;;;;6.40;3.17;;;6.90;99.90;;;;;;5034705;28;20033;-90
2022/02/27 08:33:16;;;;;;;7.43;3.47;;;7.40;99.90;;;;;;5034806;28;20025;-90
2022/02/27 08:35:42;;;;;;;5.75;3.20;;;7.50;99.90;;;;;;5019005;28;20053;-90
2022/02/27 08:38:08;;;;;;;5.80;3.17;;;8.10;99.90;;;;;;5034117;28;20414;-90
2022/02/27 08:40:33;;;;;;;4.70;2.80;;;8.20;99.90;;;;;;5034210;28;20064;-91
2022/02/27 08:43:01;;;;;;;5.75;3.42;;;8.40;99.90;;;;;;5034234;28;20025;-90
2022/02/27 08:45:28;;;;;;;6.47;3.75;;;10.10;99.90;;;;;;5016732;28;20029;-91
2022/02/27 08:47:54;;;;;;;5.57;3.38;;;10.40;99.90;;;;;;5017629;28;20480;-91
2022/02/27 08:50:21;;;;;;;7.03;2.90;;;11.00;99.90;;;;;;5034405;28;20554;-90
2022/02/27 08:52:47;;;;;;;4.35;3.20;;;11.10;99.90;;;;;;5033376;28;20025;-91
2022/02/27 08:55:17;;;;;;;5.97;3.13;;;11.30;99.90;;;;;;5034131;28;20022;-91
2022/02/27 08:57:46;;;;;;;5.05;3.60;;;11.90;99.90;;;;;;5032591;28;20033;-91
2022/02/27 09:00:14;;;;;;;4.68;3.00;;;11.90;99.90;;;;;;5017763;28;20491;-90
2022/02/27 09:02:40;;;;;;;5.47;3.40;;;12.30;99.90;;;;;;5033775;28;20160;-89
2022/02/27 09:05:06;;;;;;;7.32;3.38;;;12.90;99.90;;;;;;5017967;28;20083;-89
2022/02/27 09:07:35;;;;;;;6.43;3.45;;;13.70;99.90;;;;;;5028615;28;20026;-90
2022/02/27 09:10:03;;;;;;;6.15;3.38;;;13.20;99.90;;;;;;5032362;28;20025;-92
2022/02/27 09:12:29;;;;;;;6.18;3.55;;;12.90;99.90;;;;;;5009983;28;20029;-89
2022/02/27 09:14:56;;;;;;;6.28;3.25;;;13.60;99.90;;;;;;5019719;28;20453;-91
2022/02/27 09:17:22;;;;;;;4.65;3.45;;;13.90;99.90;;;;;;5029647;28;20018;-91
2022/02/27 09:19:50;;;;;;;6.35;3.58;;;13.70;99.90;;;;;;5032941;28;20047;-91
2022/02/27 09:22:16;;;;;;;5.80;3.55;;;13.50;99.90;;;;;;5016508;28;20025;-90
2022/02/27 09:24:45;;;;;;;5.63;3.47;;;13.70;99.90;;;;;;5030959;28;20033;-89
2022/02/27 09:27:11;;;;;;;6.40;3.67;;;13.80;99.90;;;;;;5020116;28;20080;-92
2022/02/27 09:29:36;;;;;;;6.82;3.67;;;14.00;99.90;;;;;;5032122;28;20069;-91
2022/02/27 09:32:02;;;;;;;7.43;3.40;;;14.20;99.90;;;;;;5015397;28;20437;-92
2022/02/27 09:34:28;;;;;;;6.78;3.13;;;14.50;99.90;;;;;;5016122;28;20571;-91
2022/02/27 09:36:54;;;;;;;6.38;3.70;;;14.10;99.90;;;;;;5032530;28;20497;-89
2022/02/27 09:39:21;;;;;;;5.50;2.92;;;15.30;99.90;;;;;;5015981;28;20132;-89
2022/02/27 09:41:47;;;;;;;6.95;3.58;;;15.00;99.90;;;;;;5032481;28;20038;-90
2022/02/27 09:44:13;;;;;;;6.47;3.22;;;14.70;99.90;;;;;;5032714;28;20064;-89
2022/02/27 09:46:39;;;;;;;6.40;3.38;;;14.80;99.90;;;;;;5032443;28;20565;-89
2022/02/27 09:49:07;;;;;;;5.07;3.30;;;15.60;99.90;;;;;;5016030;28;20116;-89
2022/02/27 09:51:32;;;;;;;6.28;3.67;;;16.00;99.90;;;;;;5014930;28;20487;-90
2022/02/27 09:53:58;;;;;;;6.22;3.50;;;15.80;99.90;;;;;;5016039;28;20121;-87
2022/02/27 09:56:25;;;;;;;7.78;3.20;;;16.60;99.90;;;;;;5032218;28;20116;-88
2022/02/27 09:58:50;;;;;;;5.90;3.45;;;16.30;99.90;;;;;;5015865;28;20124;-89
2022/02/27 10:01:18;;;;;;;5.63;3.22;;;16.40;99.90;;;;;;5030280;28;20120;-89
2022/02/27 10:03:44;;;;;;;6.25;3.10;;;16.30;99.90;;;;;;5016227;28;20120;-89
2022/02/27 10:06:11;;;;;;;5.38;3.35;;;15.90;99.90;;;;;;5032621;28;20109;-89
2022/02/27 10:08:38;;;;;;;5.90;3.20;;;16.30;99.90;;;;;;5014885;28;20041;-89
2022/02/27 10:11:04;;;;;;;5.75;3.33;;;17.40;99.90;;;;;;5015526;28;20026;-88
2022/02/27 10:13:35;;;;;;;5.80;2.90;;;16.80;99.90;;;;;;5031605;28;20071;-88
2022/02/27 10:16:05;;;;;;;4.20;3.05;;;17.10;99.90;;;;;;5015876;28;20124;-88
2022/02/27 10:18:58;;;;;;;3.42;2.90;;;18.60;99.90;;;;;;5033425;28;20502;-93
2022/02/27 10:21:39;;;;;;;6.88;3.53;;;17.10;99.90;;;;;;5018593;28;20566;-94
2022/02/27 10:24:17;;;;;;;5.05;3.20;;;17.80;99.90;;;;;;5030058;28;20042;-96
2022/02/27 10:26:46;;;;;;;6.68;3.13;;;17.80;99.90;;;;;;5032182;28;20026;-93
2022/02/27 10:29:13;;;;;;;5.25;3.25;;;17.90;99.90;;;;;;5014844;28;20029;-91
2022/02/27 10:31:44;;;;;;;5.97;3.65;;;19.30;99.90;;;;;;5031827;28;20035;-91
2022/02/27 10:34:22;;;;;;;5.35;3.78;;;20.00;99.90;;;;;;5032237;28;20028;-90
2022/02/27 10:36:51;;;;;;;7.22;3.30;;;19.70;99.90;;;;;;5014504;28;20498;-91
2022/02/27 10:39:48;;;;;;;4.38;3.22;;;19.10;99.90;;;;;;5015688;28;20048;-91
2022/02/27 10:42:34;;;;;;;7.80;3.83;;;20.10;99.90;;;;;;5016982;28;20045;-93
2022/02/27 10:45:05;;;;;;;6.22;3.83;;;20.10;99.90;;;;;;5013479;28;20041;-92
2022/02/27 10:47:35;;;;;;;5.43;3.20;;;21.30;99.90;;;;;;5030531;28;20406;-93
2022/02/27 10:50:09;;;;;;;4.93;3.30;;;21.60;99.90;;;;;;5032976;28;20134;-92
2022/02/27 10:52:36;;;;;;;5.07;3.50;;;20.70;99.90;;;;;;5030176;28;20030;-90
2022/02/27 10:55:11;;;;;;;4.88;3.33;;;21.50;99.90;;;;;;5031520;28;20029;-90
2022/02/27 10:57:39;;;;;;;6.55;3.40;;;21.70;99.90;;;;;;5014288;28;20021;-93
2022/02/27 11:00:14;;;;;;;4.95;3.58;;;21.40;99.90;;;;;;5013096;28;20046;-93
2022/02/27 11:02:41;;;;;;;5.63;3.65;;;21.30;99.90;;;;;;5031394;28;20025;-93
2022/02/27 11:05:11;;;;;;;4.88;3.40;;;21.50;99.90;;;;;;5031886;28;20087;-93
2022/02/27 11:07:42;;;;;;;5.80;3.83;;;22.20;99.90;;;;;;5032589;28;20021;-93
2022/02/27 11:10:13;;;;;;;6.63;3.75;;;22.20;99.90;;;;;;5032667;28;20032;-92
2022/02/27 11:12:39;;;;;;;6.60;4.00;;;23.40;99.90;;;;;;5015298;28;20056;-91
2022/02/27 11:15:07;;;;;;;5.15;4.00;;;23.30;99.90;;;;;;5020645;28;20022;-92
2022/02/27 11:17:33;;;;;;;6.18;3.65;;;23.40;99.90;;;;;;5032133;28;20128;-96
2022/02/27 11:20:05;;;;;;;5.30;3.67;;;23.20;99.90;;;;;;5034859;28;20088;-96
2022/02/27 11:22:32;;;;;;;5.95;3.33;;;23.20;99.90;;;;;;5037595;28;20013;-96
2022/02/27 11:24:59;;;;;;;6.25;4.15;;;22.80;99.90;;;;;;5020966;28;20397;-93
2022/02/27 11:27:27;;;;;;;7.38;3.88;;;22.90;99.90;;;;;;5038937;28;20025;-96
2022/02/27 11:30:00;;;;;;;5.60;3.30;;;22.90;99.90;;;;;;5013079;28;20026;-94
2022/02/27 11:32:26;;;;;;;6.97;3.30;;;23.60;99.90;;;;;;5037120;28;20478;-96
2022/02/27 11:34:53;;;;;;;4.97;3.70;;;25.00;99.90;;;;;;5037040;28;20116;-96
2022/02/27 11:37:51;;;;;;;6.47;3.83;;;24.10;99.90;;;;;;5037675;28;20053;-95
2022/02/27 11:40:31;;;;;;;4.80;3.40;;;22.60;99.90;;;;;;4980048;28;20057;-93
2022/02/27 11:43:02;;;;;;;4.75;3.30;;;22.90;99.90;;;;;;4962875;28;20038;-96
2022/02/27 11:45:36;;;;;;;5.55;3.60;;;23.00;99.90;;;;;;4959408;28;20035;-93
2022/02/27 11:48:06;;;;;;;5.72;3.55;;;23.50;99.90;;;;;;4977822;28;20054;-90
2022/02/27 11:50:40;;;;;;;4.10;3.15;;;24.20;99.90;;;;;;4977948;28;20070;-91
2022/02/27 11:53:23;;;;;;;4.95;3.50;;;23.90;99.90;;;;;;4978591;28;20030;-90
2022/02/27 11:55:50;;;;;;;4.25;3.25;;;23.50;99.90;;;;;;4977028;28;20046;-92
2022/02/27 11:58:33;;;;;;;5.13;3.42;;;24.00;99.90;;;;;;4981636;28;20518;-91
2022/02/27 12:01:02;;;;;;;4.90;3.42;;;24.60;99.90;;;;;;4977616;28;20411;-91
2022/02/27 12:03:31;;;;;;;5.00;3.95;;;23.90;99.90;;;;;;4993042;28;20423;-92
2022/02/27 12:06:04;;;;;;;5.40;3.35;;;23.90;99.90;;;;;;4975135;28;20510;-92
2022/02/27 12:08:43;;;;;;;4.72;3.25;;;23.70;99.90;;;;;;4974406;28;20054;-91
2022/02/27 12:11:30;;;;;;;4.75;3.38;;;24.00;99.90;;;;;;4975779;28;20027;-92
2022/02/27 12:14:01;;;;;;;5.78;3.15;;;25.10;99.90;;;;;;4974617;28;20030;-91
2022/02/27 12:16:44;;;;;;;5.43;3.00;;;24.10;99.90;;;;;;5019374;28;20034;-92
2022/02/27 12:19:22;;;;;;;4.18;3.03;;;23.80;99.90;;;;;;5034915;28;20041;-92
2022/02/27 12:21:52;;;;;;;6.03;3.10;;;24.20;99.90;;;;;;5034596;28;20409;-92
2022/02/27 12:24:28;;;;;;;4.55;3.05;;;23.30;99.90;;;;;;5035230;28;20127;-92
2022/02/27 12:26:55;;;;;;;5.53;3.35;;;23.60;99.90;;;;;;5035576;28;20038;-90
2022/02/27 12:29:37;;;;;;;5.30;3.20;;;24.20;99.90;;;;;;5034650;28;20057;-92
2022/02/27 12:32:24;;;;;;;5.18;2.92;;;24.60;99.90;;;;;;5034390;28;20029;-91
2022/02/27 12:34:53;;;;;;;4.47;3.25;;;24.80;99.90;;;;;;5034613;28;20119;-91
2022/02/27 12:37:20;;;;;;;7.13;3.10;;;24.50;99.90;;;;;;5035075;28;20107;-92
2022/02/27 12:39:48;;;;;;;4.03;2.75;;;24.80;99.90;;;;;;5034361;28;20037;-92
2022/02/27 12:42:18;;;;;;;4.13;2.88;;;25.40;99.90;;;;;;5017512;28;20189;-92
2022/02/27 12:44:52;;;;;;;3.88;2.75;;;27.70;99.90;;;;;;5036397;28;20092;-92
2022/02/27 12:47:21;;;;;;;4.90;3.13;;;26.10;99.90;;;;;;5033836;28;20040;-92
2022/02/27 12:50:18;;;;;;;5.57;3.30;;;26.20;99.90;;;;;;5034583;28;20024;-92
2022/02/27 12:52:46;;;;;;;5.22;3.15;;;25.10;99.90;;;;;;5034637;28;20091;-92
2022/02/27 12:55:15;;;;;;;5.53;3.17;;;26.70;99.90;;;;;;5034571;28;20466;-92
2022/02/27 12:57:48;;;;;;;4.93;2.95;;;25.70;99.90;;;;;;5035109;28;20159;-91
2022/02/27 13:00:15;;;;;;;5.45;3.20;;;24.70;99.90;;;;;;5035008;28;20463;-91